Messwerte Dübendorf

Temperatur

Temperatur
°C
1544472000 21.00 21.00 3.8
1544475600 22.00 22.00 4.1
1544479200 23.00 23.00 3.7
1544482800 0.00 0.00 2.9
1544486400 1.00 1.00 1.1
1544490000 2.00 2.00 0.6
1544493600 3.00 3.00 0.3
1544497200 4.00 4.00 0.2
1544500800 5.00 5.00 0.1
1544504400 6.00 6.00 0.1
1544508000 7.00 7.00 0.2
1544511600 8.00 8.00 -0.2
1544515200 9.00 9.00 0.1
1544518800 10.00 10.00 0.2
1544522400 11.00 11.00 1.7
1544526000 12.00 12.00 3.1
1544529600 13.00 13.00 2.4
1544533200 14.00 14.00 2.7
1544536800 15.00 15.00 2.8
1544540400 16.00 16.00 1.3
1544544000 17.00 17.00 0.2
1544547600 18.00 18.00 -0.1
1544551200 19.00 19.00 -0.3
1544554800 20.00 20.00 -0.2

Wir danken unserem Partner: Meteo Dübendorf

Aktuellste Messwerte

Temperatur
-0.9 °C
Feuchtigkeit
95 %
Wind
0 km/hWindrichtung: Nord
Böen
1 km/h
Luftdruck
1024.0 hPa
Globalstrahlung
0 W/m²
Messzeit: 11. Dezember 2018, 21.00Datenquelle: MeteoNews Partner, Meteo Dübendorf

Weitere Messstationen in der Nähe

Messstation Temperatur Entfernung
Zürich-Zürichberg 0.1 °C 3 km
Wallisellen -0.1 °C 3 km
Zürich Oerlikon -0.1 °C 5 km
Bassersdorf -0.8 °C 7 km
Zürich Reckenholz -1.1 °C 8 km
Uetliberg -1.8 °C 10 km
Zürich Flughafen -2.2 °C 12 km

Niederschlag

Niederschlagsmenge
mm
1544472000 21.00 20.00 - 21.00
1544475600 22.00 21.00 - 22.00
1544479200 23.00 22.00 - 23.00 0.0
1544482800 0.00 23.00 - 0.00
1544486400 1.00 0.00 - 1.00
1544490000 2.00 1.00 - 2.00
1544493600 3.00 2.00 - 3.00 0.4
1544497200 4.00 3.00 - 4.00 0.0
1544500800 5.00 4.00 - 5.00 0.0
1544504400 6.00 5.00 - 6.00
1544508000 7.00 6.00 - 7.00
1544511600 8.00 7.00 - 8.00
1544515200 9.00 8.00 - 9.00 0.0
1544518800 10.00 9.00 - 10.00 0.0
1544522400 11.00 10.00 - 11.00 0.2
1544526000 12.00 11.00 - 12.00 0.8
1544529600 13.00 12.00 - 13.00
1544533200 14.00 13.00 - 14.00
1544536800 15.00 14.00 - 15.00 0.2
1544540400 16.00 15.00 - 16.00 0.0
1544544000 17.00 16.00 - 17.00 0.0
1544547600 18.00 17.00 - 18.00
1544551200 19.00 18.00 - 19.00
1544554800 20.00 19.00 - 20.00 0.0

Wind

Windrichtung Böen Mittelwind
° km/h km/h
1544472000 21.00 20.00 - 21.00 260° 21 8
1544475600 22.00 21.00 - 22.00 270° 27 9
1544479200 23.00 22.00 - 23.00 260° 24 9
1544482800 0.00 23.00 - 0.00 270° 16 2
1544486400 1.00 0.00 - 1.00 310° 23 2
1544490000 2.00 1.00 - 2.00 290° 19 4
1544493600 3.00 2.00 - 3.00 0 0
1544497200 4.00 3.00 - 4.00 0 0
1544500800 5.00 4.00 - 5.00 340° 5 0
1544504400 6.00 5.00 - 6.00 360° 3 0
1544508000 7.00 6.00 - 7.00 0 0
1544511600 8.00 7.00 - 8.00 0 0
1544515200 9.00 8.00 - 9.00 0 0
1544518800 10.00 9.00 - 10.00 0 0
1544522400 11.00 10.00 - 11.00 3 0
1544526000 12.00 11.00 - 12.00 100° 13 3
1544529600 13.00 12.00 - 13.00 110° 11 3
1544533200 14.00 13.00 - 14.00 0 0
1544536800 15.00 14.00 - 15.00 0 0
1544540400 16.00 15.00 - 16.00 110° 5 0
1544544000 17.00 16.00 - 17.00 0 0
1544547600 18.00 17.00 - 18.00 0 0
1544551200 19.00 18.00 - 19.00 0 0
1544554800 20.00 19.00 - 20.00 0 0

Ihre Wetterstation

Fehlt Ihre Wetterstation auf unserem Portal?

Schreiben Sie an network@meteonews.ch

Klima

Wann ist es am wärmsten? Wann regnet es am wenigsten? Unsere Klimadaten geben Auskunft.